sensor_id;sensor_type;location;lat;lon;timestamp;P1;durP1;ratioP1;P2;durP2;ratioP2
77164;SDS011;66140;50.280;18.660;2023-04-29T04:01:12;16.58;;;9.10;;
77164;SDS011;66140;50.280;18.660;2023-04-29T04:03:46;15.45;;;9.40;;
77164;SDS011;66140;50.280;18.660;2023-04-29T04:06:12;18.13;;;9.52;;
77164;SDS011;66140;50.280;18.660;2023-04-29T04:08:39;15.88;;;9.95;;
77164;SDS011;66140;50.280;18.660;2023-04-29T04:11:17;19.83;;;11.07;;
77164;SDS011;66140;50.280;18.660;2023-04-29T04:13:48;18.00;;;9.75;;
77164;SDS011;66140;50.280;18.660;2023-04-29T04:16:16;17.27;;;10.38;;
77164;SDS011;66140;50.280;18.660;2023-04-29T04:18:47;19.30;;;10.35;;
77164;SDS011;66140;50.280;18.660;2023-04-29T04:21:13;17.85;;;10.10;;
77164;SDS011;66140;50.280;18.660;2023-04-29T04:23:40;20.13;;;9.27;;
77164;SDS011;66140;50.280;18.660;2023-04-29T04:26:06;19.02;;;10.15;;
77164;SDS011;66140;50.280;18.660;2023-04-29T04:28:32;19.55;;;11.57;;
77164;SDS011;66140;50.280;18.660;2023-04-29T04:30:57;23.00;;;13.52;;
77164;SDS011;66140;50.280;18.660;2023-04-29T04:33:23;34.38;;;16.48;;
77164;SDS011;66140;50.280;18.660;2023-04-29T04:35:50;20.48;;;11.80;;
77164;SDS011;66140;50.280;18.660;2023-04-29T04:38:15;17.33;;;10.95;;
77164;SDS011;66140;50.280;18.660;2023-04-29T04:40:59;20.42;;;11.30;;
77164;SDS011;66140;50.280;18.660;2023-04-29T04:43:30;22.30;;;12.38;;
77164;SDS011;66140;50.280;18.660;2023-04-29T04:45:55;16.88;;;11.93;;
77164;SDS011;66140;50.280;18.660;2023-04-29T04:48:21;17.92;;;10.68;;
77164;SDS011;66140;50.280;18.660;2023-04-29T04:50:54;20.87;;;11.23;;
77164;SDS011;66140;50.280;18.660;2023-04-29T04:53:19;21.48;;;10.13;;
77164;SDS011;66140;50.280;18.660;2023-04-29T04:55:46;18.13;;;10.57;;
77164;SDS011;66140;50.280;18.660;2023-04-29T04:58:13;19.25;;;11.32;;
77164;SDS011;66140;50.280;18.660;2023-04-29T05:00:42;18.58;;;10.98;;
77164;SDS011;66140;50.280;18.660;2023-04-29T05:03:08;19.50;;;11.32;;
77164;SDS011;66140;50.280;18.660;2023-04-29T05:05:34;36.92;;;18.27;;
77164;SDS011;66140;50.280;18.660;2023-04-29T05:08:02;18.02;;;10.15;;
77164;SDS011;66140;50.280;18.660;2023-04-29T05:10:28;17.83;;;9.82;;
77164;SDS011;66140;50.280;18.660;2023-04-29T05:12:53;15.85;;;9.60;;
77164;SDS011;66140;50.280;18.660;2023-04-29T05:15:19;25.40;;;14.48;;
77164;SDS011;66140;50.280;18.660;2023-04-29T05:17:46;17.17;;;10.23;;
77164;SDS011;66140;50.280;18.660;2023-04-29T05:20:12;32.80;;;16.40;;
77164;SDS011;66140;50.280;18.660;2023-04-29T05:22:37;20.77;;;11.40;;
77164;SDS011;66140;50.280;18.660;2023-04-29T05:25:03;17.23;;;10.15;;
77164;SDS011;66140;50.280;18.660;2023-04-29T05:27:29;15.23;;;10.25;;
77164;SDS011;66140;50.280;18.660;2023-04-29T05:29:54;15.82;;;10.15;;
77164;SDS011;66140;50.280;18.660;2023-04-29T05:32:20;18.38;;;10.25;;
77164;SDS011;66140;50.280;18.660;2023-04-29T05:34:45;25.02;;;13.68;;
77164;SDS011;66140;50.280;18.660;2023-04-29T05:37:10;23.88;;;12.63;;
77164;SDS011;66140;50.280;18.660;2023-04-29T05:39:36;15.73;;;8.90;;
77164;SDS011;66140;50.280;18.660;2023-04-29T05:42:01;14.93;;;8.43;;
77164;SDS011;66140;50.280;18.660;2023-04-29T05:44:27;13.40;;;8.07;;
77164;SDS011;66140;50.280;18.660;2023-04-29T05:46:52;13.38;;;8.68;;
77164;SDS011;66140;50.280;18.660;2023-04-29T05:49:19;16.33;;;9.30;;
77164;SDS011;66140;50.280;18.660;2023-04-29T05:51:44;17.63;;;9.75;;
77164;SDS011;66140;50.280;18.660;2023-04-29T05:54:09;15.23;;;9.43;;
77164;SDS011;66140;50.280;18.660;2023-04-29T05:56:35;18.90;;;10.98;;
77164;SDS011;66140;50.280;18.660;2023-04-29T05:59:00;17.08;;;10.82;;
77164;SDS011;66140;50.280;18.660;2023-04-29T06:01:26;25.58;;;15.38;;
77164;SDS011;66140;50.280;18.660;2023-04-29T06:03:51;22.58;;;13.02;;
77164;SDS011;66140;50.280;18.660;2023-04-29T06:06:16;19.77;;;11.15;;
77164;SDS011;66140;50.280;18.660;2023-04-29T06:08:42;16.85;;;11.05;;
77164;SDS011;66140;50.280;18.660;2023-04-29T06:11:07;17.50;;;10.20;;
77164;SDS011;66140;50.280;18.660;2023-04-29T06:13:33;15.77;;;9.25;;
77164;SDS011;66140;50.280;18.660;2023-04-29T06:15:58;13.95;;;9.35;;
77164;SDS011;66140;50.280;18.660;2023-04-29T06:18:24;27.63;;;14.13;;
77164;SDS011;66140;50.280;18.660;2023-04-29T06:20:49;18.33;;;9.27;;
77164;SDS011;66140;50.280;18.660;2023-04-29T06:23:26;17.15;;;9.20;;
77164;SDS011;66140;50.280;18.660;2023-04-29T06:26:10;13.82;;;8.23;;
77164;SDS011;66140;50.280;18.660;2023-04-29T06:28:35;11.73;;;7.45;;
77164;SDS011;66140;50.280;18.660;2023-04-29T06:31:01;12.18;;;7.32;;
77164;SDS011;66140;50.280;18.660;2023-04-29T06:33:26;12.32;;;7.20;;
77164;SDS011;66140;50.280;18.660;2023-04-29T06:35:52;12.23;;;7.45;;
77164;SDS011;66140;50.280;18.660;2023-04-29T06:38:18;13.00;;;7.10;;
77164;SDS011;66140;50.280;18.660;2023-04-29T06:40:43;10.67;;;6.33;;
77164;SDS011;66140;50.280;18.660;2023-04-29T06:43:08;10.97;;;7.37;;
77164;SDS011;66140;50.280;18.660;2023-04-29T06:45:34;13.35;;;7.25;;
77164;SDS011;66140;50.280;18.660;2023-04-29T06:48:00;12.55;;;7.53;;
77164;SDS011;66140;50.280;18.660;2023-04-29T06:50:26;13.88;;;6.95;;
77164;SDS011;66140;50.280;18.660;2023-04-29T06:52:52;11.48;;;7.00;;
77164;SDS011;66140;50.280;18.660;2023-04-29T06:55:18;14.70;;;7.32;;
77164;SDS011;66140;50.280;18.660;2023-04-29T06:57:43;14.25;;;7.15;;
77164;SDS011;66140;50.280;18.660;2023-04-29T07:00:09;11.82;;;7.25;;
77164;SDS011;66140;50.280;18.660;2023-04-29T07:02:34;12.38;;;7.32;;
77164;SDS011;66140;50.280;18.660;2023-04-29T07:05:02;12.85;;;7.85;;
77164;SDS011;66140;50.280;18.660;2023-04-29T07:07:29;15.63;;;8.70;;
77164;SDS011;66140;50.280;18.660;2023-04-29T07:09:54;11.80;;;7.30;;
77164;SDS011;66140;50.280;18.660;2023-04-29T07:12:20;13.00;;;9.57;;
77164;SDS011;66140;50.280;18.660;2023-04-29T07:14:45;28.65;;;14.93;;
77164;SDS011;66140;50.280;18.660;2023-04-29T07:17:11;16.10;;;9.10;;
77164;SDS011;66140;50.280;18.660;2023-04-29T07:19:36;15.95;;;8.43;;
77164;SDS011;66140;50.280;18.660;2023-04-29T07:22:01;14.40;;;8.40;;
77164;SDS011;66140;50.280;18.660;2023-04-29T07:24:28;13.65;;;8.45;;
77164;SDS011;66140;50.280;18.660;2023-04-29T07:26:53;14.90;;;8.07;;
77164;SDS011;66140;50.280;18.660;2023-04-29T07:29:19;13.00;;;7.35;;
77164;SDS011;66140;50.280;18.660;2023-04-29T07:31:44;11.15;;;7.85;;
77164;SDS011;66140;50.280;18.660;2023-04-29T07:34:12;12.60;;;7.70;;
77164;SDS011;66140;50.280;18.660;2023-04-29T07:36:38;12.73;;;7.45;;
77164;SDS011;66140;50.280;18.660;2023-04-29T07:39:03;12.52;;;7.30;;
77164;SDS011;66140;50.280;18.660;2023-04-29T07:41:30;11.15;;;6.70;;
77164;SDS011;66140;50.280;18.660;2023-04-29T07:43:56;16.63;;;8.35;;
77164;SDS011;66140;50.280;18.660;2023-04-29T07:46:21;14.68;;;7.25;;
77164;SDS011;66140;50.280;18.660;2023-04-29T07:48:47;10.25;;;6.35;;
77164;SDS011;66140;50.280;18.660;2023-04-29T07:51:19;13.32;;;7.25;;
77164;SDS011;66140;50.280;18.660;2023-04-29T07:53:44;12.60;;;7.05;;
77164;SDS011;66140;50.280;18.660;2023-04-29T07:56:13;15.30;;;7.03;;
77164;SDS011;66140;50.280;18.660;2023-04-29T07:58:40;11.07;;;7.20;;
77164;SDS011;66140;50.280;18.660;2023-04-29T08:03:59;10.20;;;7.00;;
77164;SDS011;66140;50.280;18.660;2023-04-29T08:09:06;14.60;;;7.03;;
77164;SDS011;66140;50.280;18.660;2023-04-29T08:11:32;13.77;;;7.53;;
77164;SDS011;66140;50.280;18.660;2023-04-29T08:13:57;17.02;;;9.57;;
77164;SDS011;66140;50.280;18.660;2023-04-29T08:16:24;11.70;;;7.55;;
77164;SDS011;66140;50.280;18.660;2023-04-29T08:18:51;11.88;;;7.53;;
77164;SDS011;66140;50.280;18.660;2023-04-29T08:21:17;15.63;;;7.80;;
77164;SDS011;66140;50.280;18.660;2023-04-29T08:23:42;13.95;;;7.68;;
77164;SDS011;66140;50.280;18.660;2023-04-29T08:26:09;11.30;;;7.05;;
77164;SDS011;66140;50.280;18.660;2023-04-29T08:28:35;12.82;;;7.47;;
77164;SDS011;66140;50.280;18.660;2023-04-29T08:31:00;11.88;;;7.28;;
77164;SDS011;66140;50.280;18.660;2023-04-29T08:33:25;11.57;;;7.53;;
77164;SDS011;66140;50.280;18.660;2023-04-29T08:35:57;12.57;;;7.28;;
77164;SDS011;66140;50.280;18.660;2023-04-29T08:38:29;12.38;;;7.75;;
77164;SDS011;66140;50.280;18.660;2023-04-29T08:40:55;13.90;;;7.10;;
77164;SDS011;66140;50.280;18.660;2023-04-29T08:43:21;10.30;;;6.25;;
77164;SDS011;66140;50.280;18.660;2023-04-29T08:45:50;10.57;;;6.93;;
77164;SDS011;66140;50.280;18.660;2023-04-29T08:48:19;11.57;;;6.72;;
77164;SDS011;66140;50.280;18.660;2023-04-29T08:50:45;13.65;;;7.43;;
77164;SDS011;66140;50.280;18.660;2023-04-29T08:53:12;12.55;;;6.47;;
77164;SDS011;66140;50.280;18.660;2023-04-29T08:55:46;13.73;;;7.05;;
77164;SDS011;66140;50.280;18.660;2023-04-29T08:58:13;9.73;;;6.38;;
77164;SDS011;66140;50.280;18.660;2023-04-29T09:01:17;11.02;;;6.88;;
77164;SDS011;66140;50.280;18.660;2023-04-29T09:03:59;11.55;;;7.05;;
77164;SDS011;66140;50.280;18.660;2023-04-29T09:06:47;11.55;;;7.10;;
77164;SDS011;66140;50.280;18.660;2023-04-29T09:09:13;23.33;;;12.68;;
77164;SDS011;66140;50.280;18.660;2023-04-29T09:11:39;13.20;;;6.78;;
77164;SDS011;66140;50.280;18.660;2023-04-29T09:14:05;15.07;;;7.10;;
77164;SDS011;66140;50.280;18.660;2023-04-29T09:16:32;9.30;;;5.85;;
77164;SDS011;66140;50.280;18.660;2023-04-29T09:18:59;11.05;;;6.03;;
77164;SDS011;66140;50.280;18.660;2023-04-29T09:21:45;8.38;;;6.13;;
77164;SDS011;66140;50.280;18.660;2023-04-29T09:24:28;13.25;;;6.57;;
77164;SDS011;66140;50.280;18.660;2023-04-29T09:27:09;8.63;;;5.53;;
77164;SDS011;66140;50.280;18.660;2023-04-29T09:32:30;12.95;;;5.88;;
77164;SDS011;66140;50.280;18.660;2023-04-29T09:34:56;12.52;;;6.03;;
77164;SDS011;66140;50.280;18.660;2023-04-29T09:37:30;14.82;;;6.70;;
77164;SDS011;66140;50.280;18.660;2023-04-29T09:39:57;10.68;;;6.72;;
77164;SDS011;66140;50.280;18.660;2023-04-29T09:42:22;9.73;;;5.60;;
77164;SDS011;66140;50.280;18.660;2023-04-29T09:44:48;11.90;;;6.18;;
77164;SDS011;66140;50.280;18.660;2023-04-29T09:47:14;9.82;;;5.72;;
77164;SDS011;66140;50.280;18.660;2023-04-29T09:49:40;9.63;;;6.35;;
77164;SDS011;66140;50.280;18.660;2023-04-29T09:52:13;13.30;;;6.78;;
77164;SDS011;66140;50.280;18.660;2023-04-29T09:54:44;11.55;;;6.35;;
77164;SDS011;66140;50.280;18.660;2023-04-29T09:57:10;13.50;;;6.63;;
77164;SDS011;66140;50.280;18.660;2023-04-29T09:59:37;12.48;;;6.30;;
77164;SDS011;66140;50.280;18.660;2023-04-29T10:04:40;11.48;;;7.07;;
77164;SDS011;66140;50.280;18.660;2023-04-29T10:07:15;10.68;;;5.47;;
77164;SDS011;66140;50.280;18.660;2023-04-29T10:09:41;12.57;;;6.68;;
77164;SDS011;66140;50.280;18.660;2023-04-29T10:12:09;15.95;;;7.78;;
77164;SDS011;66140;50.280;18.660;2023-04-29T10:14:37;11.18;;;5.65;;
77164;SDS011;66140;50.280;18.660;2023-04-29T10:17:21;11.93;;;6.95;;
77164;SDS011;66140;50.280;18.660;2023-04-29T10:22:47;9.43;;;6.20;;
77164;SDS011;66140;50.280;18.660;2023-04-29T10:25:15;11.65;;;5.93;;
77164;SDS011;66140;50.280;18.660;2023-04-29T10:27:43;9.15;;;5.78;;
77164;SDS011;66140;50.280;18.660;2023-04-29T10:30:12;13.82;;;6.93;;
77164;SDS011;66140;50.280;18.660;2023-04-29T10:32:41;11.93;;;6.90;;
77164;SDS011;66140;50.280;18.660;2023-04-29T10:35:12;13.15;;;5.97;;
77164;SDS011;66140;50.280;18.660;2023-04-29T10:38:05;10.05;;;5.85;;
77164;SDS011;66140;50.280;18.660;2023-04-29T10:40:41;9.52;;;7.10;;
77164;SDS011;66140;50.280;18.660;2023-04-29T10:43:13;12.18;;;7.15;;
77164;SDS011;66140;50.280;18.660;2023-04-29T10:45:45;13.07;;;6.82;;
77164;SDS011;66140;50.280;18.660;2023-04-29T10:48:10;13.32;;;6.07;;
77164;SDS011;66140;50.280;18.660;2023-04-29T10:53:20;11.55;;;6.45;;
77164;SDS011;66140;50.280;18.660;2023-04-29T10:55:46;12.70;;;7.25;;
77164;SDS011;66140;50.280;18.660;2023-04-29T10:58:37;11.57;;;6.82;;
77164;SDS011;66140;50.280;18.660;2023-04-29T11:01:13;11.18;;;6.55;;
77164;SDS011;66140;50.280;18.660;2023-04-29T11:04:01;16.63;;;8.35;;
77164;SDS011;66140;50.280;18.660;2023-04-29T11:09:00;15.52;;;8.48;;
77164;SDS011;66140;50.280;18.660;2023-04-29T11:23:30;18.27;;;10.68;;
77164;SDS011;66140;50.280;18.660;2023-04-29T11:25:58;16.65;;;10.25;;
77164;SDS011;66140;50.280;18.660;2023-04-29T11:28:28;18.50;;;10.60;;
77164;SDS011;66140;50.280;18.660;2023-04-29T11:30:58;17.15;;;9.82;;
77164;SDS011;66140;50.280;18.660;2023-04-29T11:33:33;17.30;;;9.70;;
77164;SDS011;66140;50.280;18.660;2023-04-29T11:36:01;15.18;;;8.93;;
77164;SDS011;66140;50.280;18.660;2023-04-29T11:38:27;15.45;;;9.85;;
77164;SDS011;66140;50.280;18.660;2023-04-29T11:40:58;17.88;;;9.90;;
77164;SDS011;66140;50.280;18.660;2023-04-29T11:43:24;17.25;;;11.48;;
77164;SDS011;66140;50.280;18.660;2023-04-29T11:45:50;16.38;;;9.38;;
77164;SDS011;66140;50.280;18.660;2023-04-29T11:48:23;15.93;;;10.70;;
77164;SDS011;66140;50.280;18.660;2023-04-29T11:50:52;17.48;;;10.30;;
77164;SDS011;66140;50.280;18.660;2023-04-29T12:11:26;8.43;;;5.53;;
77164;SDS011;66140;50.280;18.660;2023-04-29T12:20:34;5.53;;;3.40;;
77164;SDS011;66140;50.280;18.660;2023-04-29T12:23:12;7.35;;;3.83;;
77164;SDS011;66140;50.280;18.660;2023-04-29T12:25:40;3.78;;;3.00;;
77164;SDS011;66140;50.280;18.660;2023-04-29T12:28:14;3.92;;;3.33;;
77164;SDS011;66140;50.280;18.660;2023-04-29T12:30:40;5.45;;;3.35;;
77164;SDS011;66140;50.280;18.660;2023-04-29T12:33:07;5.90;;;3.78;;
77164;SDS011;66140;50.280;18.660;2023-04-29T12:35:36;6.10;;;4.45;;
77164;SDS011;66140;50.280;18.660;2023-04-29T12:38:01;6.22;;;4.07;;
77164;SDS011;66140;50.280;18.660;2023-04-29T12:40:28;10.02;;;5.15;;
77164;SDS011;66140;50.280;18.660;2023-04-29T12:42:54;5.47;;;4.18;;
77164;SDS011;66140;50.280;18.660;2023-04-29T12:45:30;5.45;;;3.72;;
77164;SDS011;66140;50.280;18.660;2023-04-29T12:47:56;7.47;;;3.83;;
77164;SDS011;66140;50.280;18.660;2023-04-29T12:50:33;5.70;;;3.20;;
77164;SDS011;66140;50.280;18.660;2023-04-29T12:52:59;4.93;;;3.65;;
77164;SDS011;66140;50.280;18.660;2023-04-29T12:55:25;5.75;;;3.60;;
77164;SDS011;66140;50.280;18.660;2023-04-29T12:57:53;6.90;;;3.42;;
77164;SDS011;66140;50.280;18.660;2023-04-29T13:00:23;6.28;;;3.72;;
77164;SDS011;66140;50.280;18.660;2023-04-29T13:02:50;9.00;;;3.90;;
77164;SDS011;66140;50.280;18.660;2023-04-29T13:05:47;9.18;;;3.70;;
77164;SDS011;66140;50.280;18.660;2023-04-29T13:08:52;6.32;;;3.88;;
77164;SDS011;66140;50.280;18.660;2023-04-29T13:11:18;5.40;;;3.60;;
77164;SDS011;66140;50.280;18.660;2023-04-29T13:13:45;7.32;;;4.13;;
77164;SDS011;66140;50.280;18.660;2023-04-29T13:16:11;5.85;;;4.10;;
77164;SDS011;66140;50.280;18.660;2023-04-29T13:18:36;7.20;;;4.43;;
77164;SDS011;66140;50.280;18.660;2023-04-29T13:21:04;7.95;;;4.38;;
77164;SDS011;66140;50.280;18.660;2023-04-29T13:23:30;6.80;;;5.10;;
77164;SDS011;66140;50.280;18.660;2023-04-29T13:25:55;6.20;;;4.15;;
77164;SDS011;66140;50.280;18.660;2023-04-29T13:28:21;5.53;;;4.07;;
77164;SDS011;66140;50.280;18.660;2023-04-29T13:30:47;9.57;;;4.78;;
77164;SDS011;66140;50.280;18.660;2023-04-29T13:33:13;9.63;;;4.57;;
77164;SDS011;66140;50.280;18.660;2023-04-29T13:35:39;7.68;;;4.47;;
77164;SDS011;66140;50.280;18.660;2023-04-29T13:38:05;10.18;;;6.05;;
77164;SDS011;66140;50.280;18.660;2023-04-29T13:40:37;11.38;;;5.00;;
77164;SDS011;66140;50.280;18.660;2023-04-29T13:43:04;6.35;;;4.80;;
77164;SDS011;66140;50.280;18.660;2023-04-29T13:45:31;9.35;;;4.80;;
77164;SDS011;66140;50.280;18.660;2023-04-29T13:47:57;7.68;;;4.85;;
77164;SDS011;66140;50.280;18.660;2023-04-29T13:50:23;8.20;;;5.00;;
77164;SDS011;66140;50.280;18.660;2023-04-29T13:52:51;8.45;;;4.43;;
77164;SDS011;66140;50.280;18.660;2023-04-29T13:55:21;13.20;;;4.57;;
77164;SDS011;66140;50.280;18.660;2023-04-29T13:57:54;8.02;;;4.95;;
77164;SDS011;66140;50.280;18.660;2023-04-29T14:00:20;8.98;;;4.50;;
77164;SDS011;66140;50.280;18.660;2023-04-29T14:02:45;6.78;;;5.18;;
77164;SDS011;66140;50.280;18.660;2023-04-29T14:05:11;7.40;;;4.85;;
77164;SDS011;66140;50.280;18.660;2023-04-29T14:07:37;7.05;;;4.68;;
77164;SDS011;66140;50.280;18.660;2023-04-29T14:10:02;11.90;;;5.80;;
77164;SDS011;66140;50.280;18.660;2023-04-29T14:12:28;9.65;;;5.38;;
77164;SDS011;66140;50.280;18.660;2023-04-29T14:14:53;9.27;;;4.03;;
77164;SDS011;66140;50.280;18.660;2023-04-29T14:17:18;6.03;;;4.22;;
77164;SDS011;66140;50.280;18.660;2023-04-29T14:19:44;5.82;;;3.92;;
77164;SDS011;66140;50.280;18.660;2023-04-29T14:22:09;9.07;;;4.57;;
77164;SDS011;66140;50.280;18.660;2023-04-29T14:24:35;5.57;;;4.15;;
77164;SDS011;66140;50.280;18.660;2023-04-29T14:27:00;8.07;;;4.93;;
77164;SDS011;66140;50.280;18.660;2023-04-29T14:29:26;7.30;;;4.60;;
77164;SDS011;66140;50.280;18.660;2023-04-29T14:31:52;7.63;;;4.68;;
77164;SDS011;66140;50.280;18.660;2023-04-29T14:34:17;7.15;;;4.60;;
77164;SDS011;66140;50.280;18.660;2023-04-29T14:36:43;6.68;;;4.43;;
77164;SDS011;66140;50.280;18.660;2023-04-29T14:39:10;7.78;;;4.20;;
77164;SDS011;66140;50.280;18.660;2023-04-29T14:41:36;7.70;;;5.15;;
77164;SDS011;66140;50.280;18.660;2023-04-29T14:44:02;7.57;;;4.68;;
77164;SDS011;66140;50.280;18.660;2023-04-29T14:46:27;6.80;;;4.50;;
77164;SDS011;66140;50.280;18.660;2023-04-29T14:48:53;11.70;;;4.80;;
77164;SDS011;66140;50.280;18.660;2023-04-29T14:51:19;8.30;;;5.40;;
77164;SDS011;66140;50.280;18.660;2023-04-29T14:53:44;7.10;;;3.95;;
77164;SDS011;66140;50.280;18.660;2023-04-29T14:56:10;5.93;;;4.07;;
77164;SDS011;66140;50.280;18.660;2023-04-29T14:58:35;6.75;;;3.65;;
77164;SDS011;66140;50.280;18.660;2023-04-29T15:01:01;17.00;;;4.20;;
77164;SDS011;66140;50.280;18.660;2023-04-29T15:03:26;6.55;;;4.60;;
77164;SDS011;66140;50.280;18.660;2023-04-29T15:05:51;8.38;;;4.68;;
77164;SDS011;66140;50.280;18.660;2023-04-29T15:08:17;7.88;;;4.90;;
77164;SDS011;66140;50.280;18.660;2023-04-29T15:10:43;8.13;;;4.28;;
77164;SDS011;66140;50.280;18.660;2023-04-29T15:15:36;8.23;;;4.47;;
77164;SDS011;66140;50.280;18.660;2023-04-29T15:18:01;10.23;;;5.63;;
77164;SDS011;66140;50.280;18.660;2023-04-29T15:20:27;6.75;;;4.15;;
77164;SDS011;66140;50.280;18.660;2023-04-29T15:22:52;7.55;;;4.50;;
77164;SDS011;66140;50.280;18.660;2023-04-29T15:25:18;7.15;;;4.35;;
77164;SDS011;66140;50.280;18.660;2023-04-29T15:27:44;6.20;;;3.65;;
77164;SDS011;66140;50.280;18.660;2023-04-29T15:30:10;5.88;;;3.88;;
77164;SDS011;66140;50.280;18.660;2023-04-29T15:32:36;5.97;;;3.85;;
77164;SDS011;66140;50.280;18.660;2023-04-29T15:35:01;6.87;;;4.20;;
77164;SDS011;66140;50.280;18.660;2023-04-29T15:37:28;5.15;;;3.33;;
77164;SDS011;66140;50.280;18.660;2023-04-29T15:39:54;5.93;;;3.08;;
77164;SDS011;66140;50.280;18.660;2023-04-29T15:42:22;4.80;;;3.25;;
77164;SDS011;66140;50.280;18.660;2023-04-29T15:44:47;6.15;;;3.45;;
77164;SDS011;66140;50.280;18.660;2023-04-29T15:47:13;3.88;;;3.00;;
77164;SDS011;66140;50.280;18.660;2023-04-29T15:49:38;6.20;;;3.78;;
77164;SDS011;66140;50.280;18.660;2023-04-29T15:52:05;13.60;;;5.38;;
77164;SDS011;66140;50.280;18.660;2023-04-29T15:54:31;9.55;;;3.90;;
77164;SDS011;66140;50.280;18.660;2023-04-29T15:56:56;7.10;;;3.58;;
77164;SDS011;66140;50.280;18.660;2023-04-29T15:59:21;13.43;;;4.40;;
77164;SDS011;66140;50.280;18.660;2023-04-29T16:01:47;11.13;;;6.13;;
77164;SDS011;66140;50.280;18.660;2023-04-29T16:04:12;7.22;;;4.45;;
77164;SDS011;66140;50.280;18.660;2023-04-29T16:06:38;6.97;;;2.40;;
77164;SDS011;66140;50.280;18.660;2023-04-29T16:09:03;6.25;;;2.78;;
77164;SDS011;66140;50.280;18.660;2023-04-29T16:11:30;3.47;;;2.38;;
77164;SDS011;66140;50.280;18.660;2023-04-29T16:13:55;4.43;;;2.40;;
77164;SDS011;66140;50.280;18.660;2023-04-29T16:16:20;5.70;;;3.47;;
77164;SDS011;66140;50.280;18.660;2023-04-29T16:18:47;5.18;;;3.28;;
77164;SDS011;66140;50.280;18.660;2023-04-29T16:21:13;4.78;;;3.28;;
77164;SDS011;66140;50.280;18.660;2023-04-29T16:23:38;4.57;;;2.92;;
77164;SDS011;66140;50.280;18.660;2023-04-29T16:26:04;5.90;;;3.67;;
77164;SDS011;66140;50.280;18.660;2023-04-29T16:28:29;5.10;;;3.43;;
77164;SDS011;66140;50.280;18.660;2023-04-29T16:30:54;7.13;;;4.88;;
77164;SDS011;66140;50.280;18.660;2023-04-29T16:33:20;5.67;;;4.10;;
77164;SDS011;66140;50.280;18.660;2023-04-29T16:35:45;7.93;;;4.50;;
77164;SDS011;66140;50.280;18.660;2023-04-29T16:38:10;8.55;;;5.28;;
77164;SDS011;66140;50.280;18.660;2023-04-29T16:40:36;7.25;;;4.78;;
77164;SDS011;66140;50.280;18.660;2023-04-29T16:43:02;7.25;;;4.15;;
77164;SDS011;66140;50.280;18.660;2023-04-29T16:45:27;9.13;;;5.27;;
77164;SDS011;66140;50.280;18.660;2023-04-29T16:47:53;8.70;;;5.10;;
77164;SDS011;66140;50.280;18.660;2023-04-29T16:50:18;9.13;;;5.40;;
77164;SDS011;66140;50.280;18.660;2023-04-29T16:52:56;12.23;;;6.05;;
77164;SDS011;66140;50.280;18.660;2023-04-29T16:55:22;7.95;;;5.22;;
77164;SDS011;66140;50.280;18.660;2023-04-29T16:57:47;10.03;;;6.13;;
77164;SDS011;66140;50.280;18.660;2023-04-29T17:00:12;9.32;;;5.85;;
77164;SDS011;66140;50.280;18.660;2023-04-29T17:02:38;9.80;;;5.68;;
77164;SDS011;66140;50.280;18.660;2023-04-29T17:05:10;12.23;;;6.43;;
77164;SDS011;66140;50.280;18.660;2023-04-29T17:07:35;18.13;;;7.75;;
77164;SDS011;66140;50.280;18.660;2023-04-29T17:10:01;10.20;;;5.88;;
77164;SDS011;66140;50.280;18.660;2023-04-29T17:12:27;10.55;;;6.53;;
77164;SDS011;66140;50.280;18.660;2023-04-29T17:14:52;8.07;;;6.15;;
77164;SDS011;66140;50.280;18.660;2023-04-29T17:17:18;11.50;;;7.20;;
77164;SDS011;66140;50.280;18.660;2023-04-29T17:19:44;9.25;;;6.18;;
77164;SDS011;66140;50.280;18.660;2023-04-29T17:22:13;11.77;;;6.63;;
77164;SDS011;66140;50.280;18.660;2023-04-29T17:24:43;12.43;;;7.53;;
77164;SDS011;66140;50.280;18.660;2023-04-29T17:27:10;11.32;;;8.05;;
77164;SDS011;66140;50.280;18.660;2023-04-29T17:29:36;12.43;;;7.90;;
77164;SDS011;66140;50.280;18.660;2023-04-29T17:32:05;11.23;;;7.63;;
77164;SDS011;66140;50.280;18.660;2023-04-29T17:34:37;15.70;;;8.60;;
77164;SDS011;66140;50.280;18.660;2023-04-29T17:37:02;13.55;;;9.00;;
77164;SDS011;66140;50.280;18.660;2023-04-29T17:39:28;16.60;;;9.43;;
77164;SDS011;66140;50.280;18.660;2023-04-29T17:41:56;15.38;;;10.10;;
77164;SDS011;66140;50.280;18.660;2023-04-29T17:44:21;16.02;;;10.13;;
77164;SDS011;66140;50.280;18.660;2023-04-29T17:46:47;14.35;;;9.32;;
77164;SDS011;66140;50.280;18.660;2023-04-29T17:49:12;15.70;;;9.60;;
77164;SDS011;66140;50.280;18.660;2023-04-29T17:51:37;15.32;;;10.00;;
77164;SDS011;66140;50.280;18.660;2023-04-29T17:54:03;14.55;;;9.55;;
77164;SDS011;66140;50.280;18.660;2023-04-29T17:56:29;16.88;;;11.18;;
77164;SDS011;66140;50.280;18.660;2023-04-29T17:58:56;20.05;;;11.05;;
77164;SDS011;66140;50.280;18.660;2023-04-29T18:01:22;16.70;;;11.55;;
77164;SDS011;66140;50.280;18.660;2023-04-29T18:03:47;17.30;;;10.70;;
77164;SDS011;66140;50.280;18.660;2023-04-29T18:06:14;21.15;;;10.70;;
77164;SDS011;66140;50.280;18.660;2023-04-29T18:08:40;19.45;;;10.95;;
77164;SDS011;66140;50.280;18.660;2023-04-29T18:11:06;15.68;;;10.02;;
77164;SDS011;66140;50.280;18.660;2023-04-29T18:13:34;16.83;;;10.25;;
77164;SDS011;66140;50.280;18.660;2023-04-29T18:15:59;15.75;;;9.88;;
77164;SDS011;66140;50.280;18.660;2023-04-29T18:18:25;15.57;;;9.57;;
77164;SDS011;66140;50.280;18.660;2023-04-29T18:20:50;17.05;;;9.88;;
77164;SDS011;66140;50.280;18.660;2023-04-29T18:23:16;15.25;;;8.85;;
77164;SDS011;66140;50.280;18.660;2023-04-29T18:25:41;15.75;;;9.02;;
77164;SDS011;66140;50.280;18.660;2023-04-29T18:28:07;13.27;;;9.32;;
77164;SDS011;66140;50.280;18.660;2023-04-29T18:30:33;14.20;;;8.68;;
77164;SDS011;66140;50.280;18.660;2023-04-29T18:32:59;12.93;;;8.02;;
77164;SDS011;66140;50.280;18.660;2023-04-29T18:35:25;12.52;;;7.68;;
77164;SDS011;66140;50.280;18.660;2023-04-29T18:37:51;13.40;;;7.57;;
77164;SDS011;66140;50.280;18.660;2023-04-29T18:40:16;12.60;;;7.90;;
77164;SDS011;66140;50.280;18.660;2023-04-29T18:42:42;14.05;;;8.60;;
77164;SDS011;66140;50.280;18.660;2023-04-29T18:45:08;18.67;;;8.85;;
77164;SDS011;66140;50.280;18.660;2023-04-29T18:47:49;12.85;;;7.55;;
77164;SDS011;66140;50.280;18.660;2023-04-29T18:50:15;14.25;;;9.70;;
77164;SDS011;66140;50.280;18.660;2023-04-29T18:52:40;16.88;;;9.32;;
77164;SDS011;66140;50.280;18.660;2023-04-29T18:55:09;16.95;;;10.20;;
77164;SDS011;66140;50.280;18.660;2023-04-29T18:57:37;15.13;;;10.95;;
77164;SDS011;66140;50.280;18.660;2023-04-29T19:00:02;15.90;;;10.20;;
77164;SDS011;66140;50.280;18.660;2023-04-29T19:02:28;20.50;;;12.40;;
77164;SDS011;66140;50.280;18.660;2023-04-29T19:04:54;20.35;;;11.90;;
77164;SDS011;66140;50.280;18.660;2023-04-29T19:07:20;21.13;;;12.57;;
77164;SDS011;66140;50.280;18.660;2023-04-29T19:09:45;23.58;;;13.13;;
77164;SDS011;66140;50.280;18.660;2023-04-29T19:12:10;21.35;;;13.18;;
77164;SDS011;66140;50.280;18.660;2023-04-29T19:14:36;20.30;;;12.70;;
77164;SDS011;66140;50.280;18.660;2023-04-29T19:17:02;22.10;;;12.45;;
77164;SDS011;66140;50.280;18.660;2023-04-29T19:19:27;13.95;;;8.43;;
77164;SDS011;66140;50.280;18.660;2023-04-29T19:21:54;22.10;;;11.27;;
77164;SDS011;66140;50.280;18.660;2023-04-29T19:24:21;14.55;;;9.23;;